sensor_id;sensor_type;location;lat;lon;timestamp;temperature;humidity
23471;DHT22;11908;50.806;4.424;2023-03-03T00:00:14;3.10;99.90
23471;DHT22;11908;50.806;4.424;2023-03-03T00:02:40;3.10;99.90
23471;DHT22;11908;50.806;4.424;2023-03-03T00:05:06;3.00;99.90
23471;DHT22;11908;50.806;4.424;2023-03-03T00:07:32;2.90;99.90
23471;DHT22;11908;50.806;4.424;2023-03-03T00:09:57;2.90;99.90
23471;DHT22;11908;50.806;4.424;2023-03-03T00:12:28;2.90;99.90
23471;DHT22;11908;50.806;4.424;2023-03-03T00:14:54;2.90;99.90
23471;DHT22;11908;50.806;4.424;2023-03-03T00:17:28;2.90;99.90
23471;DHT22;11908;50.806;4.424;2023-03-03T00:19:54;2.90;99.90
23471;DHT22;11908;50.806;4.424;2023-03-03T00:22:34;2.80;99.90
23471;DHT22;11908;50.806;4.424;2023-03-03T00:27:55;2.70;99.90
23471;DHT22;11908;50.806;4.424;2023-03-03T00:30:26;2.80;99.90
23471;DHT22;11908;50.806;4.424;2023-03-03T00:32:53;2.70;99.90
23471;DHT22;11908;50.806;4.424;2023-03-03T00:35:32;2.60;99.90
23471;DHT22;11908;50.806;4.424;2023-03-03T00:38:08;2.60;99.90
23471;DHT22;11908;50.806;4.424;2023-03-03T00:40:36;2.70;99.90
23471;DHT22;11908;50.806;4.424;2023-03-03T00:45:44;2.60;99.90
23471;DHT22;11908;50.806;4.424;2023-03-03T00:48:28;2.50;99.90
23471;DHT22;11908;50.806;4.424;2023-03-03T00:50:59;2.40;99.90
23471;DHT22;11908;50.806;4.424;2023-03-03T00:53:27;2.50;99.90
23471;DHT22;11908;50.806;4.424;2023-03-03T00:55:54;2.30;99.90
23471;DHT22;11908;50.806;4.424;2023-03-03T00:58:21;2.30;99.90
23471;DHT22;11908;50.806;4.424;2023-03-03T01:00:52;2.30;99.90
23471;DHT22;11908;50.806;4.424;2023-03-03T01:03:20;2.30;99.90
23471;DHT22;11908;50.806;4.424;2023-03-03T01:05:47;2.30;99.90
23471;DHT22;11908;50.806;4.424;2023-03-03T01:08:14;2.30;99.90
23471;DHT22;11908;50.806;4.424;2023-03-03T01:10:46;2.30;99.90
23471;DHT22;11908;50.806;4.424;2023-03-03T01:13:15;2.30;99.90
23471;DHT22;11908;50.806;4.424;2023-03-03T01:15:42;2.30;99.90
23471;DHT22;11908;50.806;4.424;2023-03-03T01:18:09;2.30;99.90
23471;DHT22;11908;50.806;4.424;2023-03-03T01:20:36;2.30;99.90
23471;DHT22;11908;50.806;4.424;2023-03-03T01:23:02;2.30;99.90
23471;DHT22;11908;50.806;4.424;2023-03-03T01:25:28;2.30;99.90
23471;DHT22;11908;50.806;4.424;2023-03-03T01:27:54;2.30;99.90
23471;DHT22;11908;50.806;4.424;2023-03-03T01:30:20;2.10;99.90
23471;DHT22;11908;50.806;4.424;2023-03-03T01:32:45;2.20;99.90
23471;DHT22;11908;50.806;4.424;2023-03-03T01:35:11;2.20;99.90
23471;DHT22;11908;50.806;4.424;2023-03-03T01:37:37;2.20;99.90
23471;DHT22;11908;50.806;4.424;2023-03-03T01:40:05;2.20;99.90
23471;DHT22;11908;50.806;4.424;2023-03-03T01:42:32;2.20;99.90
23471;DHT22;11908;50.806;4.424;2023-03-03T01:47:46;2.10;99.90
23471;DHT22;11908;50.806;4.424;2023-03-03T01:50:27;2.10;99.90
23471;DHT22;11908;50.806;4.424;2023-03-03T01:52:55;2.00;99.90
23471;DHT22;11908;50.806;4.424;2023-03-03T01:55:25;2.00;99.90
23471;DHT22;11908;50.806;4.424;2023-03-03T01:58:30;2.00;99.90
23471;DHT22;11908;50.806;4.424;2023-03-03T02:00:58;2.00;99.90
23471;DHT22;11908;50.806;4.424;2023-03-03T02:03:25;2.00;99.90
23471;DHT22;11908;50.806;4.424;2023-03-03T02:05:55;2.00;99.90
23471;DHT22;11908;50.806;4.424;2023-03-03T02:08:27;1.90;99.90
23471;DHT22;11908;50.806;4.424;2023-03-03T02:10:54;1.90;99.90
23471;DHT22;11908;50.806;4.424;2023-03-03T02:13:21;1.80;99.90
23471;DHT22;11908;50.806;4.424;2023-03-03T02:15:47;1.80;99.90
23471;DHT22;11908;50.806;4.424;2023-03-03T02:18:14;1.80;99.90
23471;DHT22;11908;50.806;4.424;2023-03-03T02:26:03;1.70;99.90
23471;DHT22;11908;50.806;4.424;2023-03-03T02:28:32;1.70;99.90
23471;DHT22;11908;50.806;4.424;2023-03-03T02:30:59;1.70;99.90
23471;DHT22;11908;50.806;4.424;2023-03-03T02:33:25;1.70;99.90
23471;DHT22;11908;50.806;4.424;2023-03-03T02:35:51;1.70;99.90
23471;DHT22;11908;50.806;4.424;2023-03-03T02:38:40;1.70;99.90
23471;DHT22;11908;50.806;4.424;2023-03-03T02:46:20;2.00;99.90
23471;DHT22;11908;50.806;4.424;2023-03-03T02:48:46;2.00;99.90
23471;DHT22;11908;50.806;4.424;2023-03-03T02:51:12;2.10;99.90
23471;DHT22;11908;50.806;4.424;2023-03-03T02:53:37;2.10;99.90
23471;DHT22;11908;50.806;4.424;2023-03-03T02:56:04;2.10;99.90
23471;DHT22;11908;50.806;4.424;2023-03-03T02:58:30;2.10;99.90
23471;DHT22;11908;50.806;4.424;2023-03-03T03:00:55;2.10;99.90
23471;DHT22;11908;50.806;4.424;2023-03-03T03:03:21;2.30;99.90
23471;DHT22;11908;50.806;4.424;2023-03-03T03:05:47;2.30;99.90
23471;DHT22;11908;50.806;4.424;2023-03-03T03:08:13;2.30;99.90
23471;DHT22;11908;50.806;4.424;2023-03-03T03:10:39;2.40;99.90
23471;DHT22;11908;50.806;4.424;2023-03-03T03:13:07;2.30;99.90
23471;DHT22;11908;50.806;4.424;2023-03-03T03:15:34;2.30;99.90
23471;DHT22;11908;50.806;4.424;2023-03-03T03:18:00;2.20;99.90
23471;DHT22;11908;50.806;4.424;2023-03-03T03:20:26;2.30;99.90
23471;DHT22;11908;50.806;4.424;2023-03-03T03:22:51;2.20;99.90
23471;DHT22;11908;50.806;4.424;2023-03-03T03:25:17;2.20;99.90
23471;DHT22;11908;50.806;4.424;2023-03-03T03:27:43;2.20;99.90
23471;DHT22;11908;50.806;4.424;2023-03-03T03:30:09;2.20;99.90
23471;DHT22;11908;50.806;4.424;2023-03-03T03:32:34;2.30;99.90
23471;DHT22;11908;50.806;4.424;2023-03-03T03:35:00;2.30;99.90
23471;DHT22;11908;50.806;4.424;2023-03-03T03:37:26;2.20;99.90
23471;DHT22;11908;50.806;4.424;2023-03-03T03:39:52;2.20;99.90
23471;DHT22;11908;50.806;4.424;2023-03-03T03:42:18;2.20;99.90
23471;DHT22;11908;50.806;4.424;2023-03-03T03:44:44;2.10;99.90
23471;DHT22;11908;50.806;4.424;2023-03-03T03:47:09;2.10;99.90
23471;DHT22;11908;50.806;4.424;2023-03-03T03:49:35;2.10;99.90
23471;DHT22;11908;50.806;4.424;2023-03-03T03:52:01;2.10;99.90
23471;DHT22;11908;50.806;4.424;2023-03-03T03:54:27;2.10;99.90
23471;DHT22;11908;50.806;4.424;2023-03-03T03:56:52;2.20;99.90
23471;DHT22;11908;50.806;4.424;2023-03-03T03:59:19;2.20;99.90
23471;DHT22;11908;50.806;4.424;2023-03-03T04:01:45;2.30;99.90
23471;DHT22;11908;50.806;4.424;2023-03-03T04:04:12;2.30;99.90
23471;DHT22;11908;50.806;4.424;2023-03-03T04:06:38;2.20;99.90
23471;DHT22;11908;50.806;4.424;2023-03-03T04:09:04;2.30;99.90
23471;DHT22;11908;50.806;4.424;2023-03-03T04:11:30;2.30;99.90
23471;DHT22;11908;50.806;4.424;2023-03-03T04:13:59;2.20;99.90
23471;DHT22;11908;50.806;4.424;2023-03-03T04:16:24;2.20;99.90
23471;DHT22;11908;50.806;4.424;2023-03-03T04:18:50;2.10;99.90
23471;DHT22;11908;50.806;4.424;2023-03-03T04:21:16;2.00;99.90
23471;DHT22;11908;50.806;4.424;2023-03-03T04:23:41;1.70;99.90
23471;DHT22;11908;50.806;4.424;2023-03-03T04:26:07;1.70;99.90
23471;DHT22;11908;50.806;4.424;2023-03-03T04:28:33;1.70;99.90
23471;DHT22;11908;50.806;4.424;2023-03-03T04:30:59;1.70;99.90
23471;DHT22;11908;50.806;4.424;2023-03-03T04:33:25;1.80;99.90
23471;DHT22;11908;50.806;4.424;2023-03-03T04:35:50;1.70;99.90
23471;DHT22;11908;50.806;4.424;2023-03-03T04:38:16;1.60;99.90
23471;DHT22;11908;50.806;4.424;2023-03-03T04:40:42;1.60;99.90
23471;DHT22;11908;50.806;4.424;2023-03-03T04:43:09;1.60;99.90
23471;DHT22;11908;50.806;4.424;2023-03-03T04:45:35;1.70;99.90
23471;DHT22;11908;50.806;4.424;2023-03-03T04:48:00;1.70;99.90
23471;DHT22;11908;50.806;4.424;2023-03-03T04:50:26;1.70;99.90
23471;DHT22;11908;50.806;4.424;2023-03-03T04:52:52;1.70;99.90
23471;DHT22;11908;50.806;4.424;2023-03-03T04:55:18;1.60;99.90
23471;DHT22;11908;50.806;4.424;2023-03-03T04:57:44;1.50;99.90
23471;DHT22;11908;50.806;4.424;2023-03-03T05:00:11;1.40;99.90
23471;DHT22;11908;50.806;4.424;2023-03-03T05:02:41;1.50;99.90
23471;DHT22;11908;50.806;4.424;2023-03-03T05:05:07;1.60;99.90
23471;DHT22;11908;50.806;4.424;2023-03-03T05:07:35;1.60;99.90
23471;DHT22;11908;50.806;4.424;2023-03-03T05:10:00;1.50;99.90
23471;DHT22;11908;50.806;4.424;2023-03-03T05:12:26;1.40;99.90
23471;DHT22;11908;50.806;4.424;2023-03-03T05:14:53;1.30;99.90
23471;DHT22;11908;50.806;4.424;2023-03-03T05:17:18;1.30;99.90
23471;DHT22;11908;50.806;4.424;2023-03-03T05:19:44;1.30;99.90
23471;DHT22;11908;50.806;4.424;2023-03-03T05:22:09;1.20;99.90
23471;DHT22;11908;50.806;4.424;2023-03-03T05:24:35;1.20;99.90
23471;DHT22;11908;50.806;4.424;2023-03-03T05:27:01;1.20;99.90
23471;DHT22;11908;50.806;4.424;2023-03-03T05:29:28;1.20;99.90
23471;DHT22;11908;50.806;4.424;2023-03-03T05:31:56;1.00;99.90
23471;DHT22;11908;50.806;4.424;2023-03-03T05:34:22;1.10;99.90
23471;DHT22;11908;50.806;4.424;2023-03-03T05:36:48;1.10;99.90
23471;DHT22;11908;50.806;4.424;2023-03-03T05:39:13;1.10;99.90
23471;DHT22;11908;50.806;4.424;2023-03-03T05:41:39;1.10;99.90
23471;DHT22;11908;50.806;4.424;2023-03-03T05:44:05;1.10;99.90
23471;DHT22;11908;50.806;4.424;2023-03-03T05:46:31;1.20;99.90
23471;DHT22;11908;50.806;4.424;2023-03-03T05:48:57;1.20;99.90
23471;DHT22;11908;50.806;4.424;2023-03-03T05:51:22;1.30;99.90
23471;DHT22;11908;50.806;4.424;2023-03-03T05:53:48;1.40;99.90
23471;DHT22;11908;50.806;4.424;2023-03-03T05:56:14;1.40;99.90
23471;DHT22;11908;50.806;4.424;2023-03-03T05:58:40;1.30;99.90
23471;DHT22;11908;50.806;4.424;2023-03-03T06:01:06;1.20;99.90
23471;DHT22;11908;50.806;4.424;2023-03-03T06:03:32;1.30;99.90
23471;DHT22;11908;50.806;4.424;2023-03-03T06:05:57;1.40;99.90
23471;DHT22;11908;50.806;4.424;2023-03-03T06:08:23;1.20;99.90
23471;DHT22;11908;50.806;4.424;2023-03-03T06:10:49;1.10;99.90
23471;DHT22;11908;50.806;4.424;2023-03-03T06:13:14;1.20;99.90
23471;DHT22;11908;50.806;4.424;2023-03-03T06:15:40;1.10;99.90
23471;DHT22;11908;50.806;4.424;2023-03-03T06:18:06;1.20;99.90
23471;DHT22;11908;50.806;4.424;2023-03-03T06:20:32;1.30;99.90
23471;DHT22;11908;50.806;4.424;2023-03-03T06:23:00;1.40;99.90
23471;DHT22;11908;50.806;4.424;2023-03-03T06:25:26;1.40;99.90
23471;DHT22;11908;50.806;4.424;2023-03-03T06:27:52;1.50;99.90
23471;DHT22;11908;50.806;4.424;2023-03-03T06:30:18;1.50;99.90
23471;DHT22;11908;50.806;4.424;2023-03-03T06:32:44;1.50;99.90
23471;DHT22;11908;50.806;4.424;2023-03-03T06:35:10;1.50;99.90
23471;DHT22;11908;50.806;4.424;2023-03-03T06:37:36;1.60;99.90
23471;DHT22;11908;50.806;4.424;2023-03-03T06:40:04;1.50;99.90
23471;DHT22;11908;50.806;4.424;2023-03-03T06:42:30;1.60;99.90
23471;DHT22;11908;50.806;4.424;2023-03-03T06:44:55;1.50;99.90
23471;DHT22;11908;50.806;4.424;2023-03-03T06:47:21;1.50;99.90
23471;DHT22;11908;50.806;4.424;2023-03-03T06:49:47;1.60;99.90
23471;DHT22;11908;50.806;4.424;2023-03-03T06:52:22;1.50;99.90
23471;DHT22;11908;50.806;4.424;2023-03-03T06:54:48;1.40;99.90
23471;DHT22;11908;50.806;4.424;2023-03-03T06:57:30;1.50;99.90
23471;DHT22;11908;50.806;4.424;2023-03-03T07:02:40;1.70;99.90
23471;DHT22;11908;50.806;4.424;2023-03-03T07:05:13;1.60;99.90
23471;DHT22;11908;50.806;4.424;2023-03-03T07:07:39;1.40;99.90
23471;DHT22;11908;50.806;4.424;2023-03-03T07:12:44;1.20;99.90
23471;DHT22;11908;50.806;4.424;2023-03-03T07:17:43;1.20;99.90
23471;DHT22;11908;50.806;4.424;2023-03-03T07:20:24;1.10;99.90
23471;DHT22;11908;50.806;4.424;2023-03-03T07:22:52;1.20;99.90
23471;DHT22;11908;50.806;4.424;2023-03-03T07:25:21;1.20;99.90
23471;DHT22;11908;50.806;4.424;2023-03-03T07:27:52;1.30;99.90
23471;DHT22;11908;50.806;4.424;2023-03-03T07:30:28;1.30;99.90
23471;DHT22;11908;50.806;4.424;2023-03-03T07:32:55;1.30;99.90
23471;DHT22;11908;50.806;4.424;2023-03-03T07:35:42;1.30;99.90
23471;DHT22;11908;50.806;4.424;2023-03-03T07:41:18;1.20;99.90
23471;DHT22;11908;50.806;4.424;2023-03-03T07:43:52;1.10;99.90
23471;DHT22;11908;50.806;4.424;2023-03-03T07:46:42;1.10;99.90
23471;DHT22;11908;50.806;4.424;2023-03-03T07:49:35;1.10;99.90
23471;DHT22;11908;50.806;4.424;2023-03-03T07:52:02;1.20;99.90
23471;DHT22;11908;50.806;4.424;2023-03-03T07:54:43;1.20;99.90
23471;DHT22;11908;50.806;4.424;2023-03-03T07:59:54;1.20;99.90
23471;DHT22;11908;50.806;4.424;2023-03-03T08:02:35;1.10;99.90
23471;DHT22;11908;50.806;4.424;2023-03-03T08:05:23;1.10;99.90
23471;DHT22;11908;50.806;4.424;2023-03-03T08:07:51;1.20;99.90
23471;DHT22;11908;50.806;4.424;2023-03-03T08:10:34;1.30;99.90
23471;DHT22;11908;50.806;4.424;2023-03-03T08:13:08;1.20;99.90
23471;DHT22;11908;50.806;4.424;2023-03-03T08:15:39;1.20;99.90
23471;DHT22;11908;50.806;4.424;2023-03-03T08:18:20;1.20;99.90
23471;DHT22;11908;50.806;4.424;2023-03-03T08:20:52;1.20;99.90
23471;DHT22;11908;50.806;4.424;2023-03-03T08:23:19;1.30;99.90
23471;DHT22;11908;50.806;4.424;2023-03-03T08:25:46;1.20;99.90
23471;DHT22;11908;50.806;4.424;2023-03-03T08:28:12;1.20;99.90
23471;DHT22;11908;50.806;4.424;2023-03-03T08:30:38;1.30;99.90
23471;DHT22;11908;50.806;4.424;2023-03-03T08:33:04;1.30;99.90
23471;DHT22;11908;50.806;4.424;2023-03-03T08:35:30;1.40;99.90
23471;DHT22;11908;50.806;4.424;2023-03-03T08:37:56;1.40;99.90
23471;DHT22;11908;50.806;4.424;2023-03-03T08:40:21;1.50;99.90
23471;DHT22;11908;50.806;4.424;2023-03-03T08:42:47;1.30;99.90
23471;DHT22;11908;50.806;4.424;2023-03-03T08:45:13;1.20;99.90
23471;DHT22;11908;50.806;4.424;2023-03-03T08:47:38;1.40;99.90
23471;DHT22;11908;50.806;4.424;2023-03-03T08:50:05;1.60;99.90
23471;DHT22;11908;50.806;4.424;2023-03-03T08:52:32;1.60;99.90
23471;DHT22;11908;50.806;4.424;2023-03-03T08:54:58;1.60;99.90
23471;DHT22;11908;50.806;4.424;2023-03-03T08:57:24;1.80;99.90
23471;DHT22;11908;50.806;4.424;2023-03-03T08:59:50;1.90;99.90
23471;DHT22;11908;50.806;4.424;2023-03-03T09:02:15;1.80;99.90
23471;DHT22;11908;50.806;4.424;2023-03-03T09:04:42;1.80;99.90
23471;DHT22;11908;50.806;4.424;2023-03-03T09:07:07;1.90;99.90
23471;DHT22;11908;50.806;4.424;2023-03-03T09:09:33;2.00;99.90
23471;DHT22;11908;50.806;4.424;2023-03-03T09:12:12;2.00;99.90
23471;DHT22;11908;50.806;4.424;2023-03-03T09:14:39;2.00;99.90
23471;DHT22;11908;50.806;4.424;2023-03-03T09:17:30;2.00;99.90
23471;DHT22;11908;50.806;4.424;2023-03-03T09:19:59;1.90;99.90
23471;DHT22;11908;50.806;4.424;2023-03-03T09:22:27;1.90;99.90
23471;DHT22;11908;50.806;4.424;2023-03-03T09:24:58;2.00;99.90
23471;DHT22;11908;50.806;4.424;2023-03-03T09:27:29;2.00;99.90
23471;DHT22;11908;50.806;4.424;2023-03-03T09:30:02;1.90;99.90
23471;DHT22;11908;50.806;4.424;2023-03-03T09:32:37;1.80;99.90
23471;DHT22;11908;50.806;4.424;2023-03-03T09:35:33;1.70;99.90
23471;DHT22;11908;50.806;4.424;2023-03-03T09:38:01;1.80;99.90
23471;DHT22;11908;50.806;4.424;2023-03-03T09:43:41;1.90;99.90
23471;DHT22;11908;50.806;4.424;2023-03-03T09:49:18;2.00;99.90
23471;DHT22;11908;50.806;4.424;2023-03-03T09:57:35;2.10;99.90
23471;DHT22;11908;50.806;4.424;2023-03-03T10:23:06;2.30;99.90
23471;DHT22;11908;50.806;4.424;2023-03-03T10:25:41;2.40;99.90
23471;DHT22;11908;50.806;4.424;2023-03-03T10:37:05;2.70;99.90
23471;DHT22;11908;50.806;4.424;2023-03-03T10:39:39;2.90;99.90
23471;DHT22;11908;50.806;4.424;2023-03-03T10:42:17;3.00;99.90
23471;DHT22;11908;50.806;4.424;2023-03-03T10:50:49;2.90;99.90
23471;DHT22;11908;50.806;4.424;2023-03-03T10:56:28;3.00;99.90
23471;DHT22;11908;50.806;4.424;2023-03-03T11:10:22;3.50;99.90
23471;DHT22;11908;50.806;4.424;2023-03-03T11:21:12;3.80;99.90
23471;DHT22;11908;50.806;4.424;2023-03-03T11:29:09;3.70;99.90
23471;DHT22;11908;50.806;4.424;2023-03-03T11:34:37;3.70;99.90
23471;DHT22;11908;50.806;4.424;2023-03-03T11:37:09;4.00;99.90
23471;DHT22;11908;50.806;4.424;2023-03-03T11:39:37;4.10;99.90
23471;DHT22;11908;50.806;4.424;2023-03-03T11:42:15;4.20;99.90
23471;DHT22;11908;50.806;4.424;2023-03-03T11:47:21;4.30;99.90
23471;DHT22;11908;50.806;4.424;2023-03-03T11:50:14;4.30;99.90
23471;DHT22;11908;50.806;4.424;2023-03-03T11:52:49;4.20;99.90
23471;DHT22;11908;50.806;4.424;2023-03-03T11:55:35;4.00;99.90
23471;DHT22;11908;50.806;4.424;2023-03-03T12:03:38;4.40;99.90
23471;DHT22;11908;50.806;4.424;2023-03-03T12:06:07;4.40;99.90
23471;DHT22;11908;50.806;4.424;2023-03-03T12:11:23;4.40;99.90
23471;DHT22;11908;50.806;4.424;2023-03-03T12:14:09;4.40;99.90
23471;DHT22;11908;50.806;4.424;2023-03-03T12:19:27;4.90;99.90
23471;DHT22;11908;50.806;4.424;2023-03-03T12:22:17;5.10;99.90
23471;DHT22;11908;50.806;4.424;2023-03-03T12:27:57;5.50;99.90
23471;DHT22;11908;50.806;4.424;2023-03-03T12:41:56;5.10;99.90
23471;DHT22;11908;50.806;4.424;2023-03-03T12:52:44;5.50;99.90
23471;DHT22;11908;50.806;4.424;2023-03-03T12:55:35;5.50;99.90
23471;DHT22;11908;50.806;4.424;2023-03-03T13:06:35;5.60;99.90
23471;DHT22;11908;50.806;4.424;2023-03-03T13:09:08;5.30;99.90
23471;DHT22;11908;50.806;4.424;2023-03-03T13:22:26;6.30;99.90
23471;DHT22;11908;50.806;4.424;2023-03-03T13:27:31;6.60;99.90
23471;DHT22;11908;50.806;4.424;2023-03-03T13:30:02;6.60;99.90
23471;DHT22;11908;50.806;4.424;2023-03-03T13:32:37;6.90;99.90
23471;DHT22;11908;50.806;4.424;2023-03-03T13:35:41;6.90;99.90
23471;DHT22;11908;50.806;4.424;2023-03-03T13:38:13;6.70;99.90
23471;DHT22;11908;50.806;4.424;2023-03-03T13:40:48;6.70;99.90
23471;DHT22;11908;50.806;4.424;2023-03-03T13:43:20;6.60;99.90
23471;DHT22;11908;50.806;4.424;2023-03-03T13:51:16;6.00;99.90
23471;DHT22;11908;50.806;4.424;2023-03-03T14:00:02;6.20;99.90
23471;DHT22;11908;50.806;4.424;2023-03-03T14:07:59;6.60;99.90
23471;DHT22;11908;50.806;4.424;2023-03-03T14:10:31;6.60;99.90
23471;DHT22;11908;50.806;4.424;2023-03-03T14:13:07;6.50;99.90
23471;DHT22;11908;50.806;4.424;2023-03-03T14:18:54;6.50;99.90
23471;DHT22;11908;50.806;4.424;2023-03-03T14:21:42;6.60;99.90
23471;DHT22;11908;50.806;4.424;2023-03-03T14:24:20;6.80;99.90
23471;DHT22;11908;50.806;4.424;2023-03-03T14:29:34;6.50;99.90
23471;DHT22;11908;50.806;4.424;2023-03-03T14:32:02;6.50;99.90
23471;DHT22;11908;50.806;4.424;2023-03-03T14:34:44;6.60;99.90
23471;DHT22;11908;50.806;4.424;2023-03-03T14:37:26;6.50;99.90
23471;DHT22;11908;50.806;4.424;2023-03-03T14:40:15;6.40;99.90
23471;DHT22;11908;50.806;4.424;2023-03-03T14:45:35;6.60;99.90
23471;DHT22;11908;50.806;4.424;2023-03-03T14:48:26;6.50;99.90
23471;DHT22;11908;50.806;4.424;2023-03-03T14:50:59;6.60;99.90
23471;DHT22;11908;50.806;4.424;2023-03-03T14:53:44;6.50;99.90
23471;DHT22;11908;50.806;4.424;2023-03-03T14:58:47;6.60;99.90
23471;DHT22;11908;50.806;4.424;2023-03-03T15:01:29;6.70;99.90
23471;DHT22;11908;50.806;4.424;2023-03-03T15:04:04;6.70;99.90
23471;DHT22;11908;50.806;4.424;2023-03-03T15:07:35;6.60;99.90
23471;DHT22;11908;50.806;4.424;2023-03-03T15:09:39;6.50;99.90
23471;DHT22;11908;50.806;4.424;2023-03-03T15:12:19;6.50;99.90
23471;DHT22;11908;50.806;4.424;2023-03-03T15:14:52;6.60;99.90
23471;DHT22;11908;50.806;4.424;2023-03-03T15:23:04;6.70;99.90
23471;DHT22;11908;50.806;4.424;2023-03-03T15:33:45;6.50;99.90
23471;DHT22;11908;50.806;4.424;2023-03-03T15:41:56;6.40;99.90
23471;DHT22;11908;50.806;4.424;2023-03-03T15:47:33;6.50;99.90
23471;DHT22;11908;50.806;4.424;2023-03-03T15:52:35;6.60;99.90
23471;DHT22;11908;50.806;4.424;2023-03-03T15:55:31;6.60;99.90
23471;DHT22;11908;50.806;4.424;2023-03-03T16:03:44;6.50;99.90
23471;DHT22;11908;50.806;4.424;2023-03-03T16:09:02;6.60;99.90
23471;DHT22;11908;50.806;4.424;2023-03-03T16:11:44;6.60;99.90
23471;DHT22;11908;50.806;4.424;2023-03-03T16:22:27;6.50;99.90
23471;DHT22;11908;50.806;4.424;2023-03-03T16:25:06;6.60;99.90
23471;DHT22;11908;50.806;4.424;2023-03-03T16:39:49;6.60;99.90
23471;DHT22;11908;50.806;4.424;2023-03-03T16:47:29;6.60;99.90
23471;DHT22;11908;50.806;4.424;2023-03-03T16:56:12;6.60;99.90
23471;DHT22;11908;50.806;4.424;2023-03-03T17:04:30;6.40;99.90
23471;DHT22;11908;50.806;4.424;2023-03-03T17:06:53;6.50;99.90
23471;DHT22;11908;50.806;4.424;2023-03-03T17:12:18;6.30;99.90
23471;DHT22;11908;50.806;4.424;2023-03-03T17:18:09;6.30;99.90
23471;DHT22;11908;50.806;4.424;2023-03-03T17:20:38;6.30;99.90
23471;DHT22;11908;50.806;4.424;2023-03-03T17:42:15;6.20;99.90
23471;DHT22;11908;50.806;4.424;2023-03-03T17:45:05;6.20;99.90
23471;DHT22;11908;50.806;4.424;2023-03-03T17:58:47;6.30;99.90
23471;DHT22;11908;50.806;4.424;2023-03-03T18:08:20;6.00;99.90
23471;DHT22;11908;50.806;4.424;2023-03-03T18:10:32;6.00;99.90
23471;DHT22;11908;50.806;4.424;2023-03-03T18:13:18;6.00;99.90
23471;DHT22;11908;50.806;4.424;2023-03-03T18:21:36;6.00;99.90
23471;DHT22;11908;50.806;4.424;2023-03-03T18:24:52;6.00;99.90
23471;DHT22;11908;50.806;4.424;2023-03-03T18:28:11;5.90;99.90
23471;DHT22;11908;50.806;4.424;2023-03-03T18:30:24;6.00;99.90
23471;DHT22;11908;50.806;4.424;2023-03-03T18:35:25;5.90;99.90
23471;DHT22;11908;50.806;4.424;2023-03-03T18:37:52;5.90;99.90
23471;DHT22;11908;50.806;4.424;2023-03-03T18:40:31;5.80;99.90
23471;DHT22;11908;50.806;4.424;2023-03-03T18:42:57;5.70;99.90
23471;DHT22;11908;50.806;4.424;2023-03-03T18:56:02;5.50;99.90
23471;DHT22;11908;50.806;4.424;2023-03-03T18:58:34;5.50;99.90
23471;DHT22;11908;50.806;4.424;2023-03-03T19:01:13;5.60;99.90
23471;DHT22;11908;50.806;4.424;2023-03-03T19:04:15;5.60;99.90
23471;DHT22;11908;50.806;4.424;2023-03-03T19:09:11;5.60;99.90
23471;DHT22;11908;50.806;4.424;2023-03-03T19:11:53;5.60;99.90
23471;DHT22;11908;50.806;4.424;2023-03-03T19:16:53;5.60;99.90
23471;DHT22;11908;50.806;4.424;2023-03-03T19:19:24;5.70;99.90
23471;DHT22;11908;50.806;4.424;2023-03-03T19:22:25;5.60;99.90
23471;DHT22;11908;50.806;4.424;2023-03-03T19:33:39;5.70;99.90
23471;DHT22;11908;50.806;4.424;2023-03-03T19:36:19;5.70;99.90
23471;DHT22;11908;50.806;4.424;2023-03-03T19:47:47;5.90;99.90
23471;DHT22;11908;50.806;4.424;2023-03-03T19:55:31;5.90;99.90
23471;DHT22;11908;50.806;4.424;2023-03-03T20:00:45;5.90;99.90
23471;DHT22;11908;50.806;4.424;2023-03-03T20:05:43;5.90;99.90
23471;DHT22;11908;50.806;4.424;2023-03-03T20:08:32;5.80;99.90
23471;DHT22;11908;50.806;4.424;2023-03-03T20:14:35;5.70;99.90
23471;DHT22;11908;50.806;4.424;2023-03-03T20:37:17;5.90;99.90
23471;DHT22;11908;50.806;4.424;2023-03-03T20:39:57;6.10;99.90
23471;DHT22;11908;50.806;4.424;2023-03-03T20:53:28;6.30;99.90
23471;DHT22;11908;50.806;4.424;2023-03-03T21:06:47;6.30;99.90
23471;DHT22;11908;50.806;4.424;2023-03-03T21:09:34;6.40;99.90
23471;DHT22;11908;50.806;4.424;2023-03-03T21:12:25;6.40;99.90
23471;DHT22;11908;50.806;4.424;2023-03-03T21:15:21;6.40;99.90
23471;DHT22;11908;50.806;4.424;2023-03-03T21:17:47;6.50;99.90
23471;DHT22;11908;50.806;4.424;2023-03-03T21:22:49;6.60;99.90
23471;DHT22;11908;50.806;4.424;2023-03-03T21:28:17;6.50;99.90
23471;DHT22;11908;50.806;4.424;2023-03-03T21:31:03;6.50;99.90
23471;DHT22;11908;50.806;4.424;2023-03-03T21:36:19;6.50;99.90
23471;DHT22;11908;50.806;4.424;2023-03-03T21:38:45;6.40;99.90
23471;DHT22;11908;50.806;4.424;2023-03-03T21:41:12;6.40;99.90
23471;DHT22;11908;50.806;4.424;2023-03-03T21:43:44;6.40;99.90
23471;DHT22;11908;50.806;4.424;2023-03-03T21:46:10;6.40;99.90
23471;DHT22;11908;50.806;4.424;2023-03-03T21:48:40;6.40;99.90
23471;DHT22;11908;50.806;4.424;2023-03-03T21:51:07;6.30;99.90
23471;DHT22;11908;50.806;4.424;2023-03-03T21:53:33;6.30;99.90
23471;DHT22;11908;50.806;4.424;2023-03-03T21:55:59;6.30;99.90
23471;DHT22;11908;50.806;4.424;2023-03-03T21:58:25;6.30;99.90
23471;DHT22;11908;50.806;4.424;2023-03-03T22:00:51;6.30;99.90
23471;DHT22;11908;50.806;4.424;2023-03-03T22:03:16;6.30;99.90
23471;DHT22;11908;50.806;4.424;2023-03-03T22:05:45;6.30;99.90
23471;DHT22;11908;50.806;4.424;2023-03-03T22:08:12;6.20;99.90
23471;DHT22;11908;50.806;4.424;2023-03-03T22:10:38;6.20;99.90
23471;DHT22;11908;50.806;4.424;2023-03-03T22:13:03;6.20;99.90
23471;DHT22;11908;50.806;4.424;2023-03-03T22:15:29;6.30;99.90
23471;DHT22;11908;50.806;4.424;2023-03-03T22:17:58;6.40;99.90
23471;DHT22;11908;50.806;4.424;2023-03-03T22:20:23;6.40;99.90
23471;DHT22;11908;50.806;4.424;2023-03-03T22:22:49;6.40;99.90
23471;DHT22;11908;50.806;4.424;2023-03-03T22:25:15;6.30;99.90
23471;DHT22;11908;50.806;4.424;2023-03-03T22:27:40;6.30;99.90
23471;DHT22;11908;50.806;4.424;2023-03-03T22:30:07;6.30;99.90
23471;DHT22;11908;50.806;4.424;2023-03-03T22:32:32;6.20;99.90
23471;DHT22;11908;50.806;4.424;2023-03-03T22:34:58;6.10;99.90
23471;DHT22;11908;50.806;4.424;2023-03-03T22:37:24;6.10;99.90
23471;DHT22;11908;50.806;4.424;2023-03-03T22:39:49;6.10;99.90
23471;DHT22;11908;50.806;4.424;2023-03-03T22:42:15;6.20;99.90
23471;DHT22;11908;50.806;4.424;2023-03-03T22:44:41;6.20;99.90
23471;DHT22;11908;50.806;4.424;2023-03-03T22:47:06;6.20;99.90
23471;DHT22;11908;50.806;4.424;2023-03-03T22:49:32;6.20;99.90
23471;DHT22;11908;50.806;4.424;2023-03-03T22:51:58;6.20;99.90
23471;DHT22;11908;50.806;4.424;2023-03-03T22:54:25;6.20;99.90
23471;DHT22;11908;50.806;4.424;2023-03-03T22:56:50;6.20;99.90
23471;DHT22;11908;50.806;4.424;2023-03-03T22:59:16;6.20;99.90
23471;DHT22;11908;50.806;4.424;2023-03-03T23:01:42;6.10;99.90
23471;DHT22;11908;50.806;4.424;2023-03-03T23:04:07;6.10;99.90
23471;DHT22;11908;50.806;4.424;2023-03-03T23:06:33;6.00;99.90